createdAt,value
2018-07-13T00:01:28.991Z,8.30
2018-07-13T00:03:56.127Z,7.90
2018-07-13T00:06:23.250Z,7.93
2018-07-13T00:08:50.360Z,8.50
2018-07-13T00:11:17.570Z,7.70
2018-07-13T00:13:55.161Z,7.63
2018-07-13T00:16:22.290Z,7.53
2018-07-13T00:18:49.432Z,8.33
2018-07-13T00:21:16.573Z,7.97
2018-07-13T00:23:43.682Z,7.77
2018-07-13T00:26:10.814Z,8.43
2018-07-13T00:28:38.082Z,7.90
2018-07-13T00:31:05.237Z,8.10
2018-07-13T00:33:32.380Z,8.97
2018-07-13T00:35:59.519Z,8.07
2018-07-13T00:38:26.638Z,7.97
2018-07-13T00:40:53.772Z,8.90
2018-07-13T00:43:20.879Z,8.77
2018-07-13T00:45:48.023Z,8.03
2018-07-13T00:48:15.150Z,8.33
2018-07-13T00:50:42.273Z,8.33
2018-07-13T00:53:09.411Z,8.47
2018-07-13T00:55:36.530Z,8.00
2018-07-13T00:58:03.847Z,7.40
2018-07-13T01:00:32.216Z,7.70
2018-07-13T01:03:00.512Z,7.13
2018-07-13T01:05:27.889Z,7.60
2018-07-13T01:07:55.010Z,7.70
2018-07-13T01:10:22.170Z,7.43
2018-07-13T01:12:49.314Z,8.40
2018-07-13T01:15:16.449Z,7.60
2018-07-13T01:17:43.556Z,8.30
2018-07-13T01:20:10.694Z,7.90
2018-07-13T01:22:37.827Z,8.30
2018-07-13T01:25:04.988Z,8.07
2018-07-13T01:27:32.122Z,8.23
2018-07-13T01:29:59.244Z,8.97
2018-07-13T01:32:26.349Z,8.17
2018-07-13T01:34:53.457Z,8.30
2018-07-13T01:37:20.599Z,8.27
2018-07-13T01:39:47.704Z,7.00
2018-07-13T01:42:14.830Z,8.63
2018-07-13T01:44:41.934Z,8.03
2018-07-13T01:47:09.074Z,8.53
2018-07-13T01:49:36.202Z,7.80
2018-07-13T01:52:03.367Z,8.40
2018-07-13T01:54:30.506Z,7.93
2018-07-13T01:56:57.613Z,7.73
2018-07-13T01:59:24.758Z,8.90
2018-07-13T02:01:51.857Z,8.17
2018-07-13T02:04:19.016Z,8.27
2018-07-13T02:06:46.142Z,7.83
2018-07-13T02:09:13.241Z,7.53
2018-07-13T02:11:40.364Z,8.13
2018-07-13T02:14:07.717Z,8.13
2018-07-13T02:16:35.175Z,8.20
2018-07-13T02:19:02.338Z,7.17
2018-07-13T02:21:29.477Z,9.47
2018-07-13T02:23:56.617Z,7.80
2018-07-13T02:26:23.769Z,8.57
2018-07-13T02:28:50.913Z,8.43
2018-07-13T02:31:18.033Z,9.07
2018-07-13T02:33:45.181Z,8.60
2018-07-13T02:36:12.256Z,8.97
2018-07-13T02:38:39.361Z,8.40
2018-07-13T02:41:06.459Z,8.83
2018-07-13T02:43:33.603Z,8.60
2018-07-13T02:46:00.796Z,8.17
2018-07-13T02:48:27.929Z,8.77
2018-07-13T02:50:55.022Z,10.03
2018-07-13T02:53:22.168Z,8.27
2018-07-13T02:55:49.252Z,8.97
2018-07-13T02:58:16.360Z,9.07
2018-07-13T03:00:43.466Z,9.03
2018-07-13T03:03:10.570Z,8.50
2018-07-13T03:05:37.687Z,8.73
2018-07-13T03:08:05.457Z,8.57
2018-07-13T03:10:32.611Z,9.57
2018-07-13T03:12:59.825Z,8.77
2018-07-13T03:15:26.919Z,8.50
2018-07-13T03:17:54.024Z,9.33
2018-07-13T03:20:21.146Z,9.67
2018-07-13T03:22:48.255Z,8.90
2018-07-13T03:25:15.425Z,9.73
2018-07-13T03:27:42.551Z,9.27
2018-07-13T03:30:09.657Z,9.33
2018-07-13T03:32:36.777Z,9.80
2018-07-13T03:35:04.018Z,9.40
2018-07-13T03:37:31.195Z,9.23
2018-07-13T03:39:58.340Z,9.83
2018-07-13T03:42:25.469Z,9.70
2018-07-13T03:44:52.593Z,9.53
2018-07-13T03:47:19.695Z,10.63
2018-07-13T03:49:46.817Z,9.33
2018-07-13T03:52:13.913Z,9.50
2018-07-13T03:54:41.009Z,8.63
2018-07-13T03:57:08.136Z,9.70
2018-07-13T03:59:35.470Z,10.03
2018-07-13T04:02:02.632Z,9.37
2018-07-13T04:04:29.797Z,9.87
2018-07-13T04:06:56.909Z,10.03
2018-07-13T04:09:24.028Z,8.63
2018-07-13T04:11:51.170Z,9.83
2018-07-13T04:14:18.281Z,9.23
2018-07-13T04:16:45.402Z,9.13
2018-07-13T04:19:12.505Z,9.97
2018-07-13T04:21:39.650Z,9.10
2018-07-13T04:24:06.785Z,8.23
2018-07-13T04:26:33.987Z,9.03
2018-07-13T04:29:01.228Z,9.07
2018-07-13T04:31:28.350Z,9.70
2018-07-13T04:33:55.485Z,8.70
2018-07-13T04:36:22.625Z,8.93
2018-07-13T04:38:49.737Z,8.63
2018-07-13T04:41:16.900Z,9.03
2018-07-13T04:43:44.057Z,9.00
2018-07-13T04:46:11.341Z,8.93
2018-07-13T04:48:38.654Z,8.57
2018-07-13T04:51:06.349Z,8.60
2018-07-13T04:53:33.543Z,8.70
2018-07-13T04:56:00.857Z,9.13
2018-07-13T04:58:28.034Z,8.63
2018-07-13T05:00:55.182Z,9.03
2018-07-13T05:03:22.325Z,8.73
2018-07-13T05:05:49.465Z,8.60
2018-07-13T05:08:16.609Z,8.77
2018-07-13T05:10:43.801Z,8.13
2018-07-13T05:13:10.924Z,6.97
2018-07-13T05:15:38.118Z,7.65
2018-07-13T05:18:05.289Z,7.15
2018-07-13T05:20:33.856Z,7.70
2018-07-13T05:23:01.055Z,7.12
2018-07-13T05:25:28.224Z,7.40
2018-07-13T05:27:55.704Z,7.37
2018-07-13T05:30:22.894Z,7.35
2018-07-13T05:32:50.065Z,6.00
2018-07-13T05:35:17.211Z,5.95
2018-07-13T05:37:44.369Z,6.00
2018-07-13T05:40:11.523Z,5.72
2018-07-13T05:42:38.682Z,6.37
2018-07-13T05:45:05.869Z,6.47
2018-07-13T05:47:33.092Z,6.65
2018-07-13T05:50:00.296Z,6.85
2018-07-13T05:52:27.557Z,6.37
2018-07-13T05:54:54.734Z,6.65
2018-07-13T05:57:21.894Z,6.28
2018-07-13T05:59:49.049Z,6.65
2018-07-13T06:02:16.205Z,6.83
2018-07-13T06:04:43.397Z,6.70
2018-07-13T06:07:10.545Z,7.00
2018-07-13T06:09:37.721Z,6.97
2018-07-13T06:12:05.169Z,7.00
2018-07-13T06:14:32.318Z,6.92
2018-07-13T06:16:59.473Z,7.20
2018-07-13T06:19:26.585Z,6.92
2018-07-13T06:21:53.721Z,7.10
2018-07-13T06:24:20.924Z,6.25
2018-07-13T06:26:47.941Z,6.90
2018-07-13T06:29:15.060Z,6.90
2018-07-13T06:31:42.322Z,6.35
2018-07-13T06:34:09.462Z,6.42
2018-07-13T06:36:36.622Z,6.53
2018-07-13T06:39:06.535Z,7.03
2018-07-13T06:41:33.718Z,6.17
2018-07-13T06:44:00.898Z,5.72
2018-07-13T06:46:28.037Z,7.80
2018-07-13T06:48:55.165Z,5.17
2018-07-13T06:51:22.306Z,4.95
2018-07-13T06:53:49.409Z,5.05
2018-07-13T06:56:16.567Z,4.80
2018-07-13T06:58:55.674Z,5.25
2018-07-13T07:01:22.821Z,4.75
2018-07-13T07:04:27.157Z,4.72
2018-07-13T07:06:55.022Z,5.17
2018-07-13T07:09:22.955Z,4.65
2018-07-13T07:13:04.711Z,3.52
2018-07-13T07:15:31.884Z,3.75
2018-07-13T07:17:59.015Z,3.72
2018-07-13T07:20:26.164Z,3.37
2018-07-13T07:22:53.311Z,3.35
2018-07-13T07:25:20.461Z,3.33
2018-07-13T07:27:47.593Z,3.98
2018-07-13T07:30:14.713Z,3.45
2018-07-13T07:32:42.265Z,3.62
2018-07-13T07:35:09.701Z,3.45
2018-07-13T07:37:36.853Z,3.67
2018-07-13T07:40:04.062Z,3.75
2018-07-13T07:42:31.717Z,2.83
2018-07-13T07:44:58.918Z,3.35
2018-07-13T07:47:26.051Z,3.10
2018-07-13T07:49:53.232Z,3.52
2018-07-13T07:52:20.458Z,3.33
2018-07-13T07:54:47.610Z,3.27
2018-07-13T07:57:14.725Z,3.52
2018-07-13T07:59:41.842Z,3.22
2018-07-13T08:02:08.945Z,3.15
2018-07-13T08:04:36.070Z,3.33
2018-07-13T08:07:03.709Z,3.35
2018-07-13T08:09:30.404Z,3.30
2018-07-13T08:11:57.519Z,3.10
2018-07-13T08:14:24.719Z,3.98
2018-07-13T08:16:51.817Z,4.12
2018-07-13T08:19:18.909Z,3.27
2018-07-13T08:21:46.070Z,3.15
2018-07-13T08:24:15.642Z,3.30
2018-07-13T08:26:43.495Z,3.08
2018-07-13T08:29:11.471Z,3.10
2018-07-13T08:31:38.577Z,3.17
2018-07-13T08:34:05.753Z,3.15
2018-07-13T08:36:32.893Z,3.67
2018-07-13T08:39:00.086Z,3.45
2018-07-13T08:41:27.233Z,3.45
2018-07-13T08:43:54.389Z,3.65
2018-07-13T08:46:21.529Z,3.60
2018-07-13T08:48:48.681Z,3.67
2018-07-13T08:51:15.817Z,3.42
2018-07-13T08:53:42.975Z,3.77
2018-07-13T08:56:10.168Z,3.52
2018-07-13T08:58:37.265Z,4.25
2018-07-13T09:01:04.399Z,3.77
2018-07-13T09:03:31.738Z,6.33
2018-07-13T09:05:58.923Z,3.62
2018-07-13T09:08:26.074Z,3.87
2018-07-13T09:10:53.236Z,3.98
2018-07-13T09:13:20.341Z,4.10
2018-07-13T09:15:47.498Z,4.08
2018-07-13T09:18:14.679Z,3.95
2018-07-13T09:20:41.786Z,3.52
2018-07-13T09:23:08.917Z,3.87
2018-07-13T09:25:36.091Z,3.17
2018-07-13T09:28:03.290Z,3.47
2018-07-13T09:30:30.421Z,3.62
2018-07-13T09:32:57.557Z,3.42
2018-07-13T09:35:24.678Z,3.17
2018-07-13T09:37:51.824Z,3.25
2018-07-13T09:40:18.973Z,3.02
2018-07-13T09:42:46.126Z,3.10
2018-07-13T09:45:13.261Z,3.10
2018-07-13T09:47:40.384Z,3.22
2018-07-13T09:50:07.541Z,2.47
2018-07-13T09:52:34.718Z,2.08
2018-07-13T09:55:01.894Z,2.17
2018-07-13T09:57:29.095Z,2.00
2018-07-13T09:59:56.412Z,2.70
2018-07-13T10:02:23.567Z,2.25
2018-07-13T10:04:50.714Z,2.30
2018-07-13T10:07:17.862Z,2.42
2018-07-13T10:09:45.009Z,2.17
2018-07-13T10:12:12.157Z,2.35
2018-07-13T10:14:39.294Z,2.37
2018-07-13T10:17:06.590Z,2.47
2018-07-13T10:19:33.753Z,2.62
2018-07-13T10:22:01.118Z,2.37
2018-07-13T10:24:28.793Z,2.33
2018-07-13T10:26:56.109Z,2.80
2018-07-13T10:29:27.807Z,2.62
2018-07-13T10:31:55.013Z,2.42
2018-07-13T10:34:22.391Z,1.85
2018-07-13T10:36:54.430Z,2.22
2018-07-13T10:39:21.581Z,2.58
2018-07-13T10:41:48.733Z,2.58
2018-07-13T10:44:15.878Z,2.40
2018-07-13T10:46:43.059Z,2.30
2018-07-13T10:49:10.182Z,2.55
2018-07-13T10:51:37.444Z,2.35
2018-07-13T10:54:04.569Z,2.60
2018-07-13T10:56:31.733Z,2.92
2018-07-13T10:58:59.114Z,2.58
2018-07-13T11:01:26.237Z,2.77
2018-07-13T11:03:53.425Z,2.87
2018-07-13T11:06:20.538Z,2.17
2018-07-13T11:08:47.653Z,2.30
2018-07-13T11:11:14.782Z,2.50
2018-07-13T11:13:42.010Z,2.52
2018-07-13T11:16:09.039Z,2.87
2018-07-13T11:18:36.174Z,2.50
2018-07-13T11:21:03.394Z,2.50
2018-07-13T11:23:30.561Z,2.42
2018-07-13T11:25:57.701Z,2.58
2018-07-13T11:28:24.819Z,2.40
2018-07-13T11:30:51.993Z,2.65
2018-07-13T11:33:19.146Z,2.60
2018-07-13T11:35:46.436Z,2.52
2018-07-13T11:38:13.629Z,2.80
2018-07-13T11:40:40.751Z,2.30
2018-07-13T11:43:07.890Z,2.62
2018-07-13T11:45:35.037Z,2.60
2018-07-13T11:48:02.227Z,2.58
2018-07-13T11:50:29.421Z,2.40
2018-07-13T11:52:56.570Z,2.47
2018-07-13T11:55:23.701Z,2.50
2018-07-13T11:57:50.885Z,2.70
2018-07-13T12:00:18.209Z,2.30
2018-07-13T12:02:45.334Z,2.33
2018-07-13T12:05:12.475Z,2.55
2018-07-13T12:07:39.687Z,2.12
2018-07-13T12:10:06.841Z,2.30
2018-07-13T12:12:34.038Z,2.08
2018-07-13T12:15:01.241Z,2.02
2018-07-13T12:17:28.473Z,1.98
2018-07-13T12:19:55.551Z,1.82
2018-07-13T12:22:22.648Z,2.00
2018-07-13T12:24:49.778Z,2.47
2018-07-13T12:27:16.913Z,2.45
2018-07-13T12:29:44.014Z,2.40
2018-07-13T12:32:11.161Z,2.55
2018-07-13T12:34:38.315Z,2.22
2018-07-13T12:37:05.489Z,1.80
2018-07-13T12:39:32.767Z,2.17
2018-07-13T12:41:59.928Z,2.40
2018-07-13T12:44:27.126Z,2.17
2018-07-13T12:46:54.258Z,2.15
2018-07-13T12:49:21.374Z,2.12
2018-07-13T12:51:48.505Z,2.47
2018-07-13T12:54:15.721Z,2.10
2018-07-13T12:56:42.831Z,2.17
2018-07-13T12:59:09.890Z,2.37
2018-07-13T13:01:37.018Z,2.25
2018-07-13T13:04:04.279Z,2.40
2018-07-13T13:06:31.458Z,2.37
2018-07-13T13:08:58.581Z,2.22
2018-07-13T13:11:25.718Z,2.47
2018-07-13T13:13:52.885Z,2.42
2018-07-13T13:16:19.985Z,2.90
2018-07-13T13:18:47.098Z,2.27
2018-07-13T13:21:14.261Z,2.65
2018-07-13T13:23:41.418Z,2.40
2018-07-13T13:26:08.546Z,2.62
2018-07-13T13:28:35.813Z,2.70
2018-07-13T13:31:03.247Z,2.52
2018-07-13T13:33:30.553Z,2.67
2018-07-13T13:35:57.689Z,2.65
2018-07-13T13:38:24.827Z,3.10
2018-07-13T13:40:51.944Z,2.83
2018-07-13T13:43:19.058Z,2.75
2018-07-13T13:45:46.194Z,2.15
2018-07-13T13:48:13.303Z,2.90
2018-07-13T13:50:40.413Z,2.40
2018-07-13T13:53:07.697Z,2.45
2018-07-13T13:55:34.928Z,2.60
2018-07-13T13:58:02.127Z,2.60
2018-07-13T14:00:29.273Z,2.67
2018-07-13T14:02:56.392Z,2.70
2018-07-13T14:05:23.568Z,2.52
2018-07-13T14:07:50.628Z,3.15
2018-07-13T14:10:17.750Z,3.08
2018-07-13T14:12:44.863Z,2.47
2018-07-13T14:15:12.082Z,2.92
2018-07-13T14:17:39.232Z,2.87
2018-07-13T14:20:06.472Z,3.00
2018-07-13T14:22:33.595Z,2.80
2018-07-13T14:25:00.729Z,2.62
2018-07-13T14:27:27.861Z,2.95
2018-07-13T14:29:54.978Z,2.45
2018-07-13T14:32:22.149Z,3.20
2018-07-13T14:34:49.279Z,2.85
2018-07-13T14:37:16.441Z,2.35
2018-07-13T14:39:43.557Z,2.98
2018-07-13T14:42:10.877Z,2.60
2018-07-13T14:44:38.026Z,2.40
2018-07-13T14:47:05.394Z,2.80
2018-07-13T14:49:32.666Z,2.90
2018-07-13T14:51:59.841Z,2.67
2018-07-13T14:54:26.971Z,3.40
2018-07-13T14:56:54.073Z,3.08
2018-07-13T14:59:21.185Z,2.92
2018-07-13T15:01:48.305Z,3.52
2018-07-13T15:04:15.477Z,3.37
2018-07-13T15:06:44.110Z,3.37
2018-07-13T15:09:11.192Z,3.15
2018-07-13T15:11:38.394Z,3.02
2018-07-13T15:14:05.650Z,2.77
2018-07-13T15:16:32.925Z,3.17
2018-07-13T15:19:00.350Z,2.52
2018-07-13T15:21:27.576Z,3.37
2018-07-13T15:23:54.776Z,2.42
2018-07-13T15:26:21.988Z,2.70
2018-07-13T15:28:49.373Z,3.17
2018-07-13T15:31:16.567Z,2.90
2018-07-13T15:33:43.822Z,2.47
2018-07-13T15:36:10.983Z,2.75
2018-07-13T15:38:38.117Z,2.77
2018-07-13T15:41:05.326Z,2.55
2018-07-13T15:43:33.006Z,2.60
2018-07-13T15:46:00.409Z,3.22
2018-07-13T15:48:27.657Z,3.10
2018-07-13T15:50:54.808Z,2.95
2018-07-13T15:53:21.926Z,2.65
2018-07-13T15:55:54.925Z,2.70
2018-07-13T15:58:22.343Z,3.08
2018-07-13T16:00:49.505Z,2.85
2018-07-13T16:03:16.673Z,2.92
2018-07-13T16:05:43.805Z,2.77
2018-07-13T16:08:10.973Z,2.92
2018-07-13T16:10:38.220Z,2.90
2018-07-13T16:13:05.421Z,2.72
2018-07-13T16:15:32.716Z,2.55
2018-07-13T16:18:00.335Z,3.17
2018-07-13T16:20:27.517Z,2.98
2018-07-13T16:22:54.659Z,2.95
2018-07-13T16:25:21.766Z,3.35
2018-07-13T16:27:48.999Z,3.30
2018-07-13T16:30:16.229Z,3.12
2018-07-13T16:32:43.365Z,3.20
2018-07-13T16:35:10.542Z,3.20
2018-07-13T16:37:37.661Z,3.30
2018-07-13T16:40:04.905Z,2.62
2018-07-13T16:42:32.191Z,2.80
2018-07-13T16:44:59.385Z,2.67
2018-07-13T16:47:26.527Z,3.22
2018-07-13T16:49:53.642Z,3.12
2018-07-13T16:52:20.770Z,3.17
2018-07-13T16:54:47.995Z,3.42
2018-07-13T16:57:15.165Z,2.77
2018-07-13T16:59:42.302Z,3.10
2018-07-13T17:02:09.674Z,2.98
2018-07-13T17:04:36.826Z,2.87
2018-07-13T17:07:04.446Z,3.08
2018-07-13T17:09:31.700Z,3.02
2018-07-13T17:11:59.529Z,3.10
2018-07-13T17:14:26.656Z,3.35
2018-07-13T17:16:53.782Z,3.58
2018-07-13T17:19:20.933Z,3.35
2018-07-13T17:21:48.111Z,3.08
2018-07-13T17:24:15.301Z,3.33
2018-07-13T17:26:42.447Z,3.30
2018-07-13T17:29:09.578Z,2.83
2018-07-13T17:31:36.893Z,2.80
2018-07-13T17:34:04.105Z,3.12
2018-07-13T17:36:31.351Z,2.75
2018-07-13T17:38:58.584Z,3.15
2018-07-13T17:41:25.713Z,2.58
2018-07-13T17:43:52.842Z,3.47
2018-07-13T17:46:19.979Z,2.90
2018-07-13T17:48:47.191Z,3.65
2018-07-13T17:51:14.395Z,3.30
2018-07-13T17:53:41.584Z,3.02
2018-07-13T17:56:08.915Z,3.50
2018-07-13T17:58:36.187Z,3.33
2018-07-13T18:01:03.562Z,3.15
2018-07-13T18:03:30.821Z,2.85
2018-07-13T18:05:58.033Z,3.40
2018-07-13T18:08:25.174Z,3.52
2018-07-13T18:10:52.340Z,3.40
2018-07-13T18:13:19.474Z,3.00
2018-07-13T18:15:46.652Z,3.42
2018-07-13T18:18:13.909Z,2.90
2018-07-13T18:20:41.180Z,2.98
2018-07-13T18:23:08.426Z,3.35
2018-07-13T18:25:35.648Z,3.15
2018-07-13T18:28:02.951Z,2.50
2018-07-13T18:30:30.351Z,3.33
2018-07-13T18:32:57.520Z,2.80
2018-07-13T18:35:24.689Z,3.08
2018-07-13T18:37:51.825Z,3.00
2018-07-13T18:40:18.942Z,3.22
2018-07-13T18:42:46.064Z,3.67
2018-07-13T18:45:13.214Z,3.30
2018-07-13T18:47:40.363Z,3.17
2018-07-13T18:50:07.585Z,3.60
2018-07-13T18:52:34.748Z,3.37
2018-07-13T18:55:01.915Z,3.20
2018-07-13T18:57:29.113Z,3.62
2018-07-13T18:59:56.270Z,3.90
2018-07-13T19:02:23.393Z,3.25
2018-07-13T19:04:50.574Z,3.10
2018-07-13T19:07:17.770Z,3.30
2018-07-13T19:09:44.850Z,3.40
2018-07-13T19:12:11.997Z,4.07
2018-07-13T19:14:39.186Z,3.53
2018-07-13T19:17:06.442Z,3.83
2018-07-13T19:19:33.679Z,3.20
2018-07-13T19:22:00.911Z,3.20
2018-07-13T19:24:28.041Z,3.60
2018-07-13T19:26:55.313Z,4.30
2018-07-13T19:29:22.506Z,3.47
2018-07-13T19:31:49.705Z,3.70
2018-07-13T19:34:16.873Z,3.67
2018-07-13T19:36:44.001Z,4.00
2018-07-13T19:39:11.235Z,3.77
2018-07-13T19:41:38.354Z,4.10
2018-07-13T19:44:06.336Z,3.97
2018-07-13T19:46:33.665Z,4.37
2018-07-13T19:49:00.923Z,4.17
2018-07-13T19:51:28.162Z,4.27
2018-07-13T19:53:55.610Z,4.00
2018-07-13T19:56:22.745Z,3.43
2018-07-13T19:58:49.882Z,3.50
2018-07-13T20:01:17.042Z,4.03
2018-07-13T20:03:44.241Z,3.67
2018-07-13T20:06:11.378Z,3.93
2018-07-13T20:08:38.533Z,3.83
2018-07-13T20:11:05.836Z,4.03
2018-07-13T20:13:33.166Z,3.60
2018-07-13T20:16:00.398Z,3.60
2018-07-13T20:18:27.545Z,4.03
2018-07-13T20:20:54.743Z,3.97
2018-07-13T20:23:21.934Z,3.60
2018-07-13T20:25:49.092Z,3.60
2018-07-13T20:28:16.455Z,3.70
2018-07-13T20:30:43.629Z,3.60
2018-07-13T20:33:10.758Z,3.53
2018-07-13T20:35:37.999Z,3.90
2018-07-13T20:38:05.433Z,3.80
2018-07-13T20:40:32.637Z,3.80
2018-07-13T20:42:59.845Z,3.40
2018-07-13T20:45:27.054Z,3.90
2018-07-13T20:47:54.181Z,3.60
2018-07-13T20:50:21.334Z,3.53
2018-07-13T20:52:48.507Z,3.57
2018-07-13T20:55:15.683Z,3.53
2018-07-13T20:57:42.990Z,3.90
2018-07-13T21:00:10.179Z,3.23
2018-07-13T21:02:37.379Z,3.57
2018-07-13T21:05:04.617Z,3.40
2018-07-13T21:07:31.827Z,3.60
2018-07-13T21:09:59.334Z,3.20
2018-07-13T21:12:26.485Z,3.53
2018-07-13T21:14:53.640Z,3.63
2018-07-13T21:17:20.782Z,3.50
2018-07-13T21:19:48.007Z,3.77
2018-07-13T21:22:15.072Z,3.10
2018-07-13T21:24:42.193Z,3.57
2018-07-13T21:27:09.373Z,3.80
2018-07-13T21:29:36.709Z,3.30
2018-07-13T21:32:04.252Z,3.50
2018-07-13T21:34:31.374Z,3.53
2018-07-13T21:36:59.027Z,3.57
2018-07-13T21:39:26.149Z,3.77
2018-07-13T21:41:53.301Z,3.63
2018-07-13T21:44:20.429Z,3.37
2018-07-13T21:46:47.595Z,4.67
2018-07-13T21:49:14.767Z,3.53
2018-07-13T21:51:41.905Z,3.50
2018-07-13T21:54:09.110Z,4.10
2018-07-13T21:56:36.384Z,3.87
2018-07-13T21:59:03.599Z,3.63
2018-07-13T22:01:30.784Z,3.73
2018-07-13T22:03:57.954Z,4.67
2018-07-13T22:06:25.120Z,4.57
2018-07-13T22:08:52.284Z,3.70
2018-07-13T22:11:19.490Z,4.03
2018-07-13T22:13:46.684Z,3.53
2018-07-13T22:16:13.821Z,3.60
2018-07-13T22:18:40.933Z,3.80
2018-07-13T22:21:08.115Z,4.00
2018-07-13T22:23:35.290Z,4.30
2018-07-13T22:26:02.498Z,3.37
2018-07-13T22:28:29.728Z,4.00
2018-07-13T22:30:56.936Z,4.23
2018-07-13T22:33:24.128Z,3.87
2018-07-13T22:35:51.245Z,3.93
2018-07-13T22:38:18.517Z,3.60
2018-07-13T22:40:45.664Z,3.93
2018-07-13T22:43:12.782Z,4.27
2018-07-13T22:45:39.900Z,3.70
2018-07-13T22:48:07.149Z,3.93
2018-07-13T22:50:34.464Z,3.73
2018-07-13T22:53:01.823Z,3.63
2018-07-13T22:55:29.073Z,4.00
2018-07-13T22:57:56.218Z,4.00
2018-07-13T23:00:23.388Z,3.83
2018-07-13T23:02:50.505Z,3.80
2018-07-13T23:05:17.621Z,3.93
2018-07-13T23:07:51.529Z,3.70
2018-07-13T23:10:18.657Z,3.63
2018-07-13T23:12:45.806Z,3.27
2018-07-13T23:15:13.030Z,3.77
2018-07-13T23:17:41.022Z,3.87
2018-07-13T23:20:08.174Z,3.60
2018-07-13T23:22:35.464Z,3.90
2018-07-13T23:25:02.676Z,4.07
2018-07-13T23:27:29.877Z,3.93
2018-07-13T23:29:57.039Z,3.80
2018-07-13T23:32:24.181Z,4.07
2018-07-13T23:34:51.341Z,3.87
2018-07-13T23:37:18.481Z,3.70
2018-07-13T23:39:45.634Z,3.73
2018-07-13T23:42:12.861Z,3.63
2018-07-13T23:44:40.068Z,3.43
2018-07-13T23:47:07.406Z,3.87
2018-07-13T23:49:34.670Z,3.47
2018-07-13T23:52:01.870Z,3.93
2018-07-13T23:54:29.032Z,3.87
2018-07-13T23:56:56.181Z,4.03
2018-07-13T23:59:23.351Z,3.70
